Time;durP1;ratioP1;P1;durP2;ratioP2;P2;SDS_P1;SDS_P2;PMS_P1;PMS_P2;Temp;Humidity;BMP_temperature;BMP_pressure;BME280_temperature;BME280_humidity;BME280_pressure;Samples;Min_cycle;Max_cycle;Signal;HPM_P1;HPM_P2
2022/08/02 00:00:46;;;;;;;1.80;1.33;;;;;;;16.45;52.94;101688.25;4964716;28;96864;-51
2022/08/02 00:03:11;;;;;;;1.47;1.00;;;;;;;16.42;53.21;101689.28;4959377;28;96992;-51
2022/08/02 00:05:36;;;;;;;2.10;1.27;;;;;;;16.40;52.90;101698.13;4959889;28;97327;-51
2022/08/02 00:08:02;;;;;;;1.10;1.00;;;;;;;16.35;52.89;101698.91;4965385;28;97072;-51
2022/08/02 00:10:27;;;;;;;3.17;1.30;;;;;;;16.29;52.82;101694.63;4963563;28;98517;-51
2022/08/02 00:12:53;;;;;;;1.70;1.27;;;;;;;16.26;52.85;101693.59;4966856;28;96939;-51
2022/08/02 00:15:18;;;;;;;3.33;1.40;;;;;;;16.24;52.83;101696.13;4958874;28;97425;-51
2022/08/02 00:17:44;;;;;;;1.73;1.63;;;;;;;16.20;52.83;101694.88;4960264;28;97145;-51
2022/08/02 00:20:11;;;;;;;3.60;1.10;;;;;;;16.12;53.06;101705.72;4959875;28;97018;-51
2022/08/02 00:22:36;;;;;;;1.10;0.97;;;;;;;16.07;53.16;101700.94;4964308;28;97011;-51
2022/08/02 00:25:02;;;;;;;1.70;1.23;;;;;;;16.04;53.13;101696.38;4964234;28;97086;-51
2022/08/02 00:27:28;;;;;;;1.73;1.10;;;;;;;16.04;53.19;101693.63;4963799;28;97389;-52
2022/08/02 00:29:54;;;;;;;1.43;1.30;;;;;;;16.03;53.15;101694.84;4957777;28;97492;-51
2022/08/02 00:32:22;;;;;;;6.40;1.90;;;;;;;15.98;53.21;101695.63;4959430;28;97070;-51
2022/08/02 00:34:48;;;;;;;2.17;1.20;;;;;;;15.90;53.21;101694.59;4958788;28;97386;-51
2022/08/02 00:37:14;;;;;;;1.80;1.10;;;;;;;15.85;53.36;101689.81;4961200;28;97309;-51
2022/08/02 00:39:41;;;;;;;1.30;1.20;;;;;;;15.83;53.41;101699.91;4962155;28;99778;-52
2022/08/02 00:42:06;;;;;;;2.93;1.10;;;;;;;15.78;53.47;101695.88;4964392;28;97817;-51
2022/08/02 00:44:32;;;;;;;1.03;1.03;;;;;;;15.77;53.45;101693.59;4956585;28;97043;-51
2022/08/02 00:46:57;;;;;;;1.67;1.40;;;;;;;15.73;53.50;101688.28;4970289;28;97077;-50
2022/08/02 00:49:22;;;;;;;2.03;1.37;;;;;;;15.70;53.59;101694.88;4955320;28;98562;-51
2022/08/02 00:51:48;;;;;;;1.20;1.10;;;;;;;15.67;53.51;101693.09;4968260;28;96873;-51
2022/08/02 00:54:13;;;;;;;3.17;1.33;;;;;;;15.65;53.52;101693.59;4958330;28;96924;-51
2022/08/02 00:56:39;;;;;;;1.37;1.27;;;;;;;15.63;53.58;101700.91;4958847;28;97182;-51
2022/08/02 00:59:04;;;;;;;1.60;1.27;;;;;;;15.59;53.68;101700.38;4963321;28;96893;-51
2022/08/02 01:01:39;;;;;;;1.97;1.00;;;;;;;15.56;53.81;101699.38;4961641;28;97116;-52
2022/08/02 01:04:06;;;;;;;1.37;1.23;;;;;;;15.57;53.55;101700.13;4970353;28;97225;-52
2022/08/02 01:06:32;;;;;;;1.80;1.13;;;;;;;15.54;53.49;101692.81;4968451;28;97363;-52
2022/08/02 01:08:59;;;;;;;2.67;1.40;;;;;;;15.49;53.60;101693.53;4969618;28;98515;-52
2022/08/02 01:11:25;;;;;;;2.80;1.20;;;;;;;15.43;53.84;101695.53;4961670;28;96983;-52
2022/08/02 01:13:51;;;;;;;1.50;1.40;;;;;;;15.41;53.90;101689.72;4956884;28;97838;-51
2022/08/02 01:16:22;;;;;;;2.40;1.33;;;;;;;15.42;54.00;101688.47;4961748;28;97022;-52
2022/08/02 01:18:53;;;;;;;1.60;1.50;;;;;;;15.38;54.06;101696.25;4959649;28;96849;-52
2022/08/02 01:21:46;;;;;;;1.43;1.33;;;;;;;15.34;54.36;101695.75;4958146;28;97218;-52
2022/08/02 01:24:36;;;;;;;2.07;1.40;;;;;;;15.26;54.43;101698.25;4963139;28;97364;-52
2022/08/02 01:27:21;;;;;;;1.30;1.20;;;;;;;15.23;54.31;101696.47;4960843;28;101919;-51
2022/08/02 01:29:52;;;;;;;2.73;1.30;;;;;;;15.21;54.08;101699.00;4962365;28;100962;-52
2022/08/02 01:32:24;;;;;;;2.13;1.10;;;;;;;15.18;53.96;101693.69;4961709;28;96844;-52
2022/08/02 01:35:15;;;;;;;1.73;1.27;;;;;;;15.15;54.34;101701.00;4960591;28;97124;-52
2022/08/02 01:38:06;;;;;;;4.00;1.20;;;;;;;15.06;54.48;101694.91;4952443;28;100913;-52
2022/08/02 01:40:35;;;;;;;2.03;1.50;;;;;;;14.98;53.94;101702.94;4959739;28;100323;-53
2022/08/02 01:43:01;;;;;;;2.63;1.00;;;;;;;14.92;54.05;101702.91;4956374;28;97069;-52
2022/08/02 01:45:31;;;;;;;2.27;1.10;;;;;;;14.93;54.00;101707.19;4955895;28;97895;-52
2022/08/02 01:47:59;;;;;;;1.63;1.30;;;;;;;14.91;54.06;101701.41;4958962;28;97396;-52
2022/08/02 01:50:31;;;;;;;2.93;1.80;;;;;;;14.91;53.92;101708.94;4960172;28;97104;-52
2022/08/02 01:52:59;;;;;;;1.80;1.10;;;;;;;14.83;53.99;101705.88;4963043;28;97624;-52
2022/08/02 01:55:29;;;;;;;1.47;1.30;;;;;;;14.78;54.38;101708.63;4953832;28;97030;-52
2022/08/02 01:57:57;;;;;;;1.50;1.40;;;;;;;14.74;54.37;101702.56;4963509;28;96729;-52
2022/08/02 02:00:25;;;;;;;1.70;1.57;;;;;;;14.73;54.14;101707.34;4953822;28;96923;-52
2022/08/02 02:02:54;;;;;;;1.77;1.67;;;;;;;14.70;54.16;101705.56;4960269;28;97370;-51
2022/08/02 02:05:23;;;;;;;2.30;1.43;;;;;;;14.64;54.37;101704.78;4958993;28;96775;-52
2022/08/02 02:07:51;;;;;;;1.37;1.37;;;;;;;14.60;54.33;101707.03;4958612;28;97403;-52
2022/08/02 02:10:23;;;;;;;2.93;1.20;;;;;;;14.56;54.56;101700.94;4957951;28;98484;-52
2022/08/02 02:12:50;;;;;;;2.10;1.30;;;;;;;14.52;54.54;101700.44;4961689;28;96804;-52
2022/08/02 02:15:16;;;;;;;1.93;1.57;;;;;;;14.51;54.52;101701.66;4954059;28;97196;-52
2022/08/02 02:17:44;;;;;;;1.20;1.10;;;;;;;14.47;54.38;101709.44;4963888;28;97299;-53
2022/08/02 02:20:14;;;;;;;2.53;1.60;;;;;;;14.42;54.47;101698.31;4968113;28;98332;-52
2022/08/02 02:22:40;;;;;;;2.53;1.53;;;;;;;14.42;54.39;101704.63;4963127;28;97129;-52
2022/08/02 02:25:08;;;;;;;1.73;1.40;;;;;;;14.41;54.23;101702.34;4962251;28;97110;-52
2022/08/02 02:27:35;;;;;;;1.50;1.20;;;;;;;14.38;54.44;101706.09;4963655;28;97505;-52
2022/08/02 02:30:03;;;;;;;1.93;1.13;;;;;;;14.28;54.42;101699.97;4961222;28;97363;-52
2022/08/02 02:32:29;;;;;;;1.63;1.53;;;;;;;14.22;54.58;101696.38;4962452;28;101741;-52
2022/08/02 02:34:56;;;;;;;1.63;1.20;;;;;;;14.16;54.79;101692.84;4961351;28;96961;-52
2022/08/02 02:37:25;;;;;;;4.50;1.73;;;;;;;14.14;54.88;101693.34;4959657;28;98458;-52
2022/08/02 02:39:51;;;;;;;3.03;1.20;;;;;;;14.12;54.89;101686.78;4962927;28;101718;-53
2022/08/02 02:42:21;;;;;;;2.70;1.63;;;;;;;14.13;54.80;101677.97;4962653;28;97283;-52
2022/08/02 02:44:47;;;;;;;2.20;1.37;;;;;;;14.08;54.43;101677.94;4961923;28;97094;-52
2022/08/02 02:47:15;;;;;;;1.30;1.20;;;;;;;14.05;54.46;101673.38;4960557;28;98653;-52
2022/08/02 02:49:43;;;;;;;2.00;1.40;;;;;;;14.04;54.67;101671.88;4964360;28;97042;-52
2022/08/02 02:52:10;;;;;;;1.40;1.30;;;;;;;14.02;54.53;101668.84;4966755;28;96979;-53
2022/08/02 02:54:37;;;;;;;1.50;1.50;;;;;;;14.00;54.65;101665.81;4957909;28;97235;-53
2022/08/02 02:57:05;;;;;;;2.60;1.50;;;;;;;13.91;54.72;101666.72;4962355;28;97500;-53
2022/08/02 02:59:32;;;;;;;1.87;1.70;;;;;;;13.88;54.90;101664.19;4960798;28;96905;-51
2022/08/02 03:01:58;;;;;;;1.73;1.43;;;;;;;13.87;54.61;101654.38;4962414;28;96929;-51
2022/08/02 03:04:26;;;;;;;5.73;1.43;;;;;;;13.85;54.69;101662.38;4957912;28;96976;-52
2022/08/02 03:06:52;;;;;;;2.23;1.40;;;;;;;13.83;54.66;101662.13;4960328;28;98532;-52
2022/08/02 03:09:17;;;;;;;1.43;1.37;;;;;;;13.81;54.47;101657.09;4962068;28;97382;-52
2022/08/02 03:11:43;;;;;;;2.23;1.40;;;;;;;13.78;54.45;101651.78;4964471;28;96973;-52
2022/08/02 03:14:11;;;;;;;1.13;1.13;;;;;;;13.72;54.57;101657.25;4968050;28;97314;-52
2022/08/02 03:16:45;;;;;;;2.13;1.13;;;;;;;13.68;54.99;101655.97;4964024;28;97041;-50
2022/08/02 03:19:10;;;;;;;3.70;1.40;;;;;;;13.63;54.69;101657.41;4964038;28;98361;-51
2022/08/02 03:21:36;;;;;;;1.00;1.00;;;;;;;13.60;54.69;101652.88;4959568;28;97220;-51
2022/08/02 03:24:02;;;;;;;3.00;1.53;;;;;;;13.58;54.84;101652.63;4960152;28;96897;-52
2022/08/02 03:26:27;;;;;;;1.27;1.27;;;;;;;13.53;54.76;101643.03;4955402;28;98759;-52
2022/08/02 03:28:52;;;;;;;1.70;1.63;;;;;;;13.49;54.86;101645.25;4965177;28;99082;-51
2022/08/02 03:31:18;;;;;;;2.70;1.50;;;;;;;13.48;54.79;101648.47;4955498;28;96686;-52
2022/08/02 03:33:44;;;;;;;1.30;1.20;;;;;;;13.49;54.79;101650.00;4965407;28;96892;-52
2022/08/02 03:36:12;;;;;;;2.00;1.20;;;;;;;13.45;54.99;101655.75;4956327;28;97542;-52
2022/08/02 03:38:39;;;;;;;2.20;1.50;;;;;;;13.45;54.83;101655.00;4962892;28;97142;-52
2022/08/02 03:41:06;;;;;;;1.37;1.27;;;;;;;13.42;54.76;101653.97;4973706;22;96926;-49
2022/08/02 03:43:32;;;;;;;1.33;1.23;;;;;;;13.38;54.87;101655.44;4963611;28;97215;-49
2022/08/02 03:45:58;;;;;;;1.30;1.20;;;;;;;13.38;54.94;101653.44;4958581;28;96976;-49
2022/08/02 03:48:25;;;;;;;3.07;1.20;;;;;;;13.37;54.77;101660.19;4959719;28;98696;-49
2022/08/02 03:50:51;;;;;;;1.60;1.17;;;;;;;13.34;54.83;101665.94;4954121;28;97336;-48
2022/08/02 03:53:17;;;;;;;3.10;1.70;;;;;;;13.31;54.93;101664.13;4953770;28;97461;-49
2022/08/02 03:55:43;;;;;;;1.77;1.40;;;;;;;13.30;55.17;101668.91;4961555;28;98707;-48
2022/08/02 03:58:20;;;;;;;1.87;1.40;;;;;;;13.32;55.35;101663.66;4965561;28;96700;-49
2022/08/02 04:00:45;;;;;;;1.00;1.00;;;;;;;13.29;55.01;101672.94;4961133;28;97076;-49
2022/08/02 04:03:11;;;;;;;1.53;1.00;;;;;;;13.27;55.07;101669.91;4955889;28;97059;-49
2022/08/02 04:05:36;;;;;;;1.63;1.10;;;;;;;13.29;55.03;101664.63;4960517;28;97083;-49
2022/08/02 04:08:02;;;;;;;3.03;1.27;;;;;;;13.29;55.01;101667.41;4962755;28;97683;-49
2022/08/02 04:10:27;;;;;;;2.40;1.23;;;;;;;13.29;55.10;101661.09;4961998;28;96989;-48
2022/08/02 04:12:53;;;;;;;2.30;1.27;;;;;;;13.29;54.97;101664.63;4959278;28;97439;-49
2022/08/02 04:15:20;;;;;;;1.10;1.00;;;;;;;13.29;55.18;101663.88;4962244;28;96965;-49
2022/08/02 04:17:50;;;;;;;1.17;1.10;;;;;;;13.27;55.02;101660.84;4959782;28;97178;-48
2022/08/02 04:20:21;;;;;;;1.73;1.23;;;;;;;13.22;55.34;101672.56;4963707;28;96886;-49
2022/08/02 04:22:54;;;;;;;2.03;1.27;;;;;;;13.20;55.39;101666.78;4962415;28;97243;-47
2022/08/02 04:25:20;;;;;;;1.57;1.30;;;;;;;13.19;55.38;101668.03;4963463;28;97237;-49
2022/08/02 04:27:46;;;;;;;1.40;1.30;;;;;;;13.15;55.34;101659.94;4964436;28;97371;-49
2022/08/02 04:30:14;;;;;;;1.43;1.20;;;;;;;13.22;55.26;101659.53;4958461;28;97216;-49
2022/08/02 04:32:41;;;;;;;1.37;0.90;;;;;;;13.22;55.14;101662.28;4957436;28;97004;-49
2022/08/02 04:35:07;;;;;;;1.10;1.10;;;;;;;13.21;55.10;101669.06;4956727;28;97272;-49
2022/08/02 04:37:34;;;;;;;1.73;1.30;;;;;;;13.19;55.20;101666.00;4962583;28;97048;-49
2022/08/02 04:39:59;;;;;;;3.93;1.43;;;;;;;13.20;55.21;101680.59;4959125;28;97012;-48
2022/08/02 04:42:25;;;;;;;2.87;1.40;;;;;;;13.20;55.28;101673.06;4959717;28;96923;-47
2022/08/02 04:44:52;;;;;;;1.73;1.30;;;;;;;13.16;55.40;101667.00;4962560;28;97925;-49
2022/08/02 04:47:20;;;;;;;1.30;1.20;;;;;;;13.15;55.48;101668.22;4962728;28;97043;-48
2022/08/02 04:49:46;;;;;;;1.77;1.07;;;;;;;13.13;55.49;101670.72;4960023;28;96824;-48
2022/08/02 04:52:12;;;;;;;1.30;1.00;;;;;;;13.14;55.44;101668.72;4960862;28;96889;-49
2022/08/02 04:54:37;;;;;;;1.30;1.30;;;;;;;13.15;55.39;101668.22;4957378;28;96616;-50
2022/08/02 04:57:53;;;;;;;1.43;1.20;;;;;;;13.15;55.55;101665.47;4955590;28;97915;-50
2022/08/02 04:59:49;;;;;;;1.87;1.20;;;;;;;13.16;55.27;101661.47;4956897;28;97396;-49
2022/08/02 05:02:14;;;;;;;1.33;1.23;;;;;;;13.17;55.54;101671.28;4960379;28;97000;-49
2022/08/02 05:04:39;;;;;;;1.30;1.20;;;;;;;13.20;55.54;101683.38;4955715;28;96705;-50
2022/08/02 05:07:05;;;;;;;1.20;1.20;;;;;;;13.22;55.54;101676.09;4960304;28;102515;-49
2022/08/02 05:09:30;;;;;;;1.50;1.40;;;;;;;13.24;55.55;101668.09;4964364;28;97119;-50
2022/08/02 05:11:55;;;;;;;1.30;1.17;;;;;;;13.28;55.59;101674.16;4951647;28;97230;-49
2022/08/02 05:14:20;;;;;;;1.77;1.67;;;;;;;13.33;55.48;101664.41;4959985;28;108702;-50
2022/08/02 05:16:46;;;;;;;1.67;1.37;;;;;;;13.38;55.56;101658.97;4956579;28;97107;-49
2022/08/02 05:19:11;;;;;;;1.77;1.10;;;;;;;13.44;55.62;101664.53;4958916;28;96869;-49
2022/08/02 05:21:36;;;;;;;1.30;1.20;;;;;;;13.47;55.72;101664.31;4958318;28;97029;-49
2022/08/02 05:24:02;;;;;;;1.37;1.27;;;;;;;13.53;55.56;101667.13;4958100;28;98314;-49
2022/08/02 05:26:27;;;;;;;1.47;1.27;;;;;;;13.59;55.76;101667.94;4956928;28;97440;-49
2022/08/02 05:28:53;;;;;;;1.10;1.10;;;;;;;13.63;55.78;101676.03;4959152;28;97333;-49
2022/08/02 05:31:18;;;;;;;1.43;1.30;;;;;;;13.69;55.97;101674.06;4956811;28;97279;-49
2022/08/02 05:33:44;;;;;;;2.10;1.53;;;;;;;13.75;55.76;101672.88;4959237;28;97481;-49
2022/08/02 05:36:09;;;;;;;2.30;1.57;;;;;;;13.81;55.94;101672.91;4955316;28;96932;-50
2022/08/02 05:38:35;;;;;;;1.50;1.40;;;;;;;13.87;55.98;101670.97;4958647;28;98074;-49
2022/08/02 05:41:01;;;;;;;2.10;1.17;;;;;;;13.93;56.00;101675.31;4954644;28;97040;-49
2022/08/02 05:43:26;;;;;;;3.10;1.40;;;;;;;13.98;55.90;101684.88;4957340;28;97433;-48
2022/08/02 05:45:52;;;;;;;3.90;1.20;;;;;;;14.02;56.03;101679.91;4957377;28;97012;-48
2022/08/02 05:48:18;;;;;;;1.30;1.20;;;;;;;14.06;56.01;101688.75;4955177;28;96931;-48
2022/08/02 05:50:47;;;;;;;1.00;1.00;;;;;;;14.09;56.08;101679.44;4959909;28;96968;-48
2022/08/02 05:53:34;;;;;;;1.53;1.43;;;;;;;14.12;56.21;101665.41;4955098;28;103175;-48
2022/08/02 05:56:31;;;;;;;2.20;1.47;;;;;;;14.16;57.01;101663.16;4954841;28;100113;-48
2022/08/02 05:59:24;;;;;;;2.30;1.10;;;;;;;14.23;57.37;101656.41;4955425;28;96961;-48
2022/08/02 06:01:55;;;;;;;6.60;1.70;;;;;;;14.30;56.46;101658.00;4948409;28;96891;-48
2022/08/02 06:04:29;;;;;;;2.50;0.90;;;;;;;14.37;56.79;101661.06;4954297;28;97805;-48
2022/08/02 06:06:58;;;;;;;2.00;1.07;;;;;;;14.46;56.51;101673.97;4955492;28;101442;-48
2022/08/02 06:09:25;;;;;;;2.00;1.23;;;;;;;14.55;56.45;101670.97;4955760;28;97329;-48
2022/08/02 06:11:52;;;;;;;1.83;1.50;;;;;;;14.63;56.70;101666.50;4960079;28;97047;-48
2022/08/02 06:14:18;;;;;;;1.23;1.13;;;;;;;14.72;56.70;101666.28;4957273;28;97994;-48
2022/08/02 06:16:44;;;;;;;1.20;1.10;;;;;;;14.80;56.74;101664.56;4956382;28;97092;-48
2022/08/02 06:19:13;;;;;;;0.90;0.90;;;;;;;14.91;57.02;101665.38;4957065;28;97095;-48
2022/08/02 06:21:41;;;;;;;1.90;1.40;;;;;;;15.01;56.87;101661.13;4955008;28;96983;-48
2022/08/02 06:24:08;;;;;;;1.60;1.27;;;;;;;15.13;56.83;101663.94;4954445;28;97478;-48
2022/08/02 06:26:35;;;;;;;2.40;1.23;;;;;;;15.24;57.08;101669.50;4955338;28;97543;-48
2022/08/02 06:29:02;;;;;;;0.87;0.87;;;;;;;15.36;56.95;101671.03;4957496;28;96872;-48
2022/08/02 06:31:28;;;;;;;2.40;1.17;;;;;;;15.48;57.00;101673.38;4958235;28;97513;-49
2022/08/02 06:33:53;;;;;;;1.43;1.20;;;;;;;15.67;57.11;101679.22;4958056;28;97548;-48
2022/08/02 06:37:05;;;;;;;1.73;1.10;;;;;;;15.83;58.22;101684.03;4957533;28;104063;-48
2022/08/02 06:39:35;;;;;;;1.33;1.23;;;;;;;16.01;57.07;101674.44;4952402;28;97017;-48
2022/08/02 06:42:10;;;;;;;2.83;1.07;;;;;;;16.16;57.33;101681.22;4956508;28;97238;-53
2022/08/02 06:44:37;;;;;;;3.27;1.37;;;;;;;16.30;57.08;101668.34;4957042;28;97470;-49
2022/08/02 06:47:03;;;;;;;1.27;1.17;;;;;;;16.43;57.16;101668.56;4957338;28;96887;-48
2022/08/02 06:49:28;;;;;;;4.07;1.37;;;;;;;16.57;57.08;101669.59;4960456;28;97135;-48
2022/08/02 06:51:54;;;;;;;1.90;1.50;;;;;;;16.72;57.12;101665.25;4961794;28;96624;-48
2022/08/02 06:54:20;;;;;;;5.77;1.10;;;;;;;16.89;56.94;101665.19;4959229;28;97372;-49
2022/08/02 06:56:46;;;;;;;1.30;1.13;;;;;;;17.02;56.92;101668.91;4954454;28;98381;-49
2022/08/02 06:59:11;;;;;;;3.37;1.27;;;;;;;17.16;56.86;101675.44;4956396;28;97699;-48
2022/08/02 07:01:37;;;;;;;1.00;0.90;;;;;;;17.27;56.89;101678.16;4956301;28;96903;-49
2022/08/02 07:04:03;;;;;;;1.90;1.20;;;;;;;17.40;56.83;101666.44;4958964;28;97392;-51
2022/08/02 07:06:29;;;;;;;3.67;1.20;;;;;;;17.53;56.73;101661.06;4957018;28;97647;-49
2022/08/02 07:08:54;;;;;;;0.93;0.73;;;;;;;17.68;56.63;101647.56;4960078;28;97995;-48
2022/08/02 07:11:20;;;;;;;2.63;1.43;;;;;;;17.81;56.44;101640.13;4962829;28;96833;-48
2022/08/02 07:13:45;;;;;;;3.67;1.00;;;;;;;17.95;56.39;101627.09;4958894;28;97331;-48
2022/08/02 07:16:10;;;;;;;3.67;1.27;;;;;;;18.09;56.24;101628.72;4949517;28;97121;-48
2022/08/02 07:18:35;;;;;;;2.50;1.30;;;;;;;18.21;56.17;101629.38;4963554;28;97361;-49
2022/08/02 07:21:04;;;;;;;3.07;1.20;;;;;;;18.35;56.05;101631.75;4960071;28;97322;-48
2022/08/02 07:23:30;;;;;;;5.57;2.27;;;;;;;18.51;55.95;101630.09;4954416;28;97435;-49
2022/08/02 07:25:55;;;;;;;1.40;1.10;;;;;;;18.65;55.99;101640.06;4944018;28;97274;-48
2022/08/02 07:28:20;;;;;;;3.60;1.13;;;;;;;18.80;55.64;101634.06;4956682;28;96951;-48
2022/08/02 07:30:46;;;;;;;2.40;1.33;;;;;;;18.93;55.30;101634.13;4961817;28;97017;-51
2022/08/02 07:33:11;;;;;;;1.67;1.03;;;;;;;19.06;55.13;101632.19;4960803;28;97142;-48
2022/08/02 07:35:37;;;;;;;5.50;1.90;;;;;;;19.18;54.83;101638.34;4961887;28;99235;-49
2022/08/02 07:38:02;;;;;;;1.63;1.13;;;;;;;19.32;54.98;101648.31;4958297;28;96847;-49
2022/08/02 07:40:27;;;;;;;1.73;1.13;;;;;;;19.46;54.78;101641.53;4966812;28;97055;-49
2022/08/02 07:42:55;;;;;;;1.80;1.40;;;;;;;19.59;54.69;101630.44;4960983;28;97777;-49
2022/08/02 07:45:22;;;;;;;3.13;1.93;;;;;;;19.74;54.43;101635.50;4954636;28;97571;-49
2022/08/02 07:47:48;;;;;;;2.23;1.43;;;;;;;19.86;54.54;101622.84;4960831;28;97030;-49
2022/08/02 07:50:15;;;;;;;2.10;1.10;;;;;;;19.98;54.33;101624.94;4959726;28;101208;-49
2022/08/02 07:52:42;;;;;;;3.23;1.33;;;;;;;20.10;54.27;101629.03;4959588;28;97353;-49
2022/08/02 07:55:09;;;;;;;2.67;1.23;;;;;;;20.24;54.02;101626.28;4959432;28;98055;-49
2022/08/02 07:57:35;;;;;;;1.37;1.03;;;;;;;20.37;53.76;101629.09;4959973;28;97385;-49
2022/08/02 08:00:02;;;;;;;3.57;1.40;;;;;;;20.50;53.74;101632.63;4960642;28;97520;-49
2022/08/02 08:02:27;;;;;;;4.33;1.20;;;;;;;20.64;53.50;101634.13;4955538;28;97280;-49
2022/08/02 08:04:52;;;;;;;2.17;1.00;;;;;;;20.75;53.47;101639.50;4959718;28;97303;-48
2022/08/02 08:07:19;;;;;;;2.77;1.53;;;;;;;20.87;53.31;101642.81;4960777;28;97001;-49
2022/08/02 08:09:46;;;;;;;3.73;1.53;;;;;;;20.98;53.26;101627.84;4952756;28;97085;-49
2022/08/02 08:12:12;;;;;;;1.53;1.30;;;;;;;21.07;53.11;101616.22;4958650;28;97708;-49
2022/08/02 08:14:38;;;;;;;1.83;1.10;;;;;;;21.17;52.86;101606.81;4956695;28;97098;-49
2022/08/02 08:17:07;;;;;;;1.93;1.43;;;;;;;21.29;52.75;101607.31;4960628;28;97090;-49
2022/08/02 08:19:32;;;;;;;2.40;1.57;;;;;;;21.42;52.72;101599.63;4958411;28;97173;-49
2022/08/02 08:22:02;;;;;;;1.23;1.13;;;;;;;21.55;52.67;101601.59;4958570;28;97441;-49
2022/08/02 08:24:28;;;;;;;3.43;1.37;;;;;;;21.71;52.73;101597.63;4960837;28;100379;-49
2022/08/02 08:26:54;;;;;;;4.73;1.40;;;;;;;21.84;52.38;101603.16;4959649;28;97195;-49
2022/08/02 08:29:20;;;;;;;3.43;1.50;;;;;;;21.97;52.33;101591.16;4963368;28;96901;-49
2022/08/02 08:31:46;;;;;;;2.40;1.33;;;;;;;22.10;52.27;101594.59;4960676;28;97043;-49
2022/08/02 08:34:11;;;;;;;2.60;1.50;;;;;;;22.23;51.99;101593.75;4957089;28;97326;-49
2022/08/02 08:36:37;;;;;;;1.93;1.10;;;;;;;22.33;51.85;101580.72;4958185;28;97486;-49
2022/08/02 08:39:03;;;;;;;2.77;1.70;;;;;;;22.45;51.72;101581.91;4957293;28;97325;-49
2022/08/02 08:41:28;;;;;;;2.70;1.23;;;;;;;22.58;51.44;101567.75;4957172;28;97190;-49
2022/08/02 08:43:53;;;;;;;3.20;1.53;;;;;;;22.72;51.32;101569.13;4957976;28;97118;-49
2022/08/02 08:46:27;;;;;;;1.40;1.30;;;;;;;22.87;50.76;101572.00;4961480;28;97004;-49
2022/08/02 08:49:04;;;;;;;1.90;1.53;;;;;;;23.05;50.90;101567.38;4958870;28;97447;-49
2022/08/02 08:51:34;;;;;;;1.90;1.40;;;;;;;23.21;50.66;101568.16;4954247;28;100652;-48
2022/08/02 08:54:02;;;;;;;1.50;1.07;;;;;;;23.40;50.68;101562.97;4960493;28;97263;-48
2022/08/02 08:56:33;;;;;;;1.80;1.17;;;;;;;23.56;50.32;101556.81;4959623;28;97224;-48
2022/08/02 08:59:00;;;;;;;1.33;1.20;;;;;;;23.71;50.20;101556.03;4957882;28;97114;-49
2022/08/02 09:01:25;;;;;;;2.37;1.30;;;;;;;23.83;49.75;101559.94;4954338;28;97566;-49
2022/08/02 09:03:51;;;;;;;1.83;1.10;;;;;;;23.93;49.75;101560.88;4959217;28;97142;-49
2022/08/02 09:06:16;;;;;;;1.70;1.60;;;;;;;24.06;49.34;101571.94;4960854;28;97079;-49
2022/08/02 09:08:43;;;;;;;1.90;1.30;;;;;;;24.22;49.04;101567.78;4960285;28;96913;-47
2022/08/02 09:11:22;;;;;;;2.20;1.23;;;;;;;24.39;48.59;101570.00;4956209;28;97506;-49
2022/08/02 09:13:59;;;;;;;1.37;1.27;;;;;;;24.57;47.87;101568.81;4955154;28;99962;-51
2022/08/02 09:16:32;;;;;;;1.40;1.20;;;;;;;24.70;47.43;101576.25;4959242;28;96942;-49
2022/08/02 09:18:58;;;;;;;2.60;0.93;;;;;;;24.76;48.06;101565.56;4961015;28;97045;-48
2022/08/02 09:21:34;;;;;;;5.03;1.20;;;;;;;24.89;47.05;101563.25;4959290;28;97451;-49
2022/08/02 09:23:59;;;;;;;2.27;1.13;;;;;;;25.01;47.76;101553.03;4956973;28;102953;-50
2022/08/02 09:26:25;;;;;;;1.90;1.27;;;;;;;25.17;47.45;101554.44;4955074;28;97112;-49
2022/08/02 09:28:58;;;;;;;1.60;1.07;;;;;;;25.30;47.18;101562.59;4957930;28;97033;-50
2022/08/02 09:31:23;;;;;;;3.30;1.30;;;;;;;25.38;46.58;101553.34;4958116;28;97270;-50
2022/08/02 09:33:56;;;;;;;0.83;0.80;;;;;;;25.49;45.99;101559.28;4957919;28;96547;-50
2022/08/02 09:36:23;;;;;;;3.20;1.57;;;;;;;25.61;46.22;101559.56;4955316;28;96893;-49
2022/08/02 09:38:54;;;;;;;1.57;1.17;;;;;;;25.68;45.54;101567.22;4954060;28;97323;-49
2022/08/02 09:41:22;;;;;;;1.67;1.20;;;;;;;25.82;45.93;101552.22;4957511;28;97498;-48
2022/08/02 09:43:48;;;;;;;2.70;1.40;;;;;;;25.88;45.69;101554.81;4985841;22;97371;-51
2022/08/02 09:46:16;;;;;;;1.90;1.07;;;;;;;26.01;45.62;101562.97;4978806;28;96893;-50
2022/08/02 09:48:50;;;;;;;1.97;0.87;;;;;;;26.11;44.71;101563.06;4978771;28;97550;-51
2022/08/02 09:51:23;;;;;;;2.07;0.90;;;;;;;26.20;44.57;101546.22;4979449;28;102356;-50
2022/08/02 09:53:52;;;;;;;1.43;1.33;;;;;;;26.31;44.68;101557.00;4978262;28;102937;-50
2022/08/02 09:56:19;;;;;;;4.23;1.30;;;;;;;26.42;44.53;101550.88;4977438;28;96975;-51
2022/08/02 09:58:44;;;;;;;1.70;1.07;;;;;;;26.52;44.42;101560.13;4976650;28;97257;-51
2022/08/02 10:01:10;;;;;;;1.13;1.03;;;;;;;26.62;44.07;101552.50;4976439;28;97174;-50
2022/08/02 10:03:35;;;;;;;5.03;1.10;;;;;;;26.74;43.88;101559.13;4975274;28;97260;-51
2022/08/02 10:06:01;;;;;;;0.90;0.90;;;;;;;26.79;43.40;101563.03;4978886;28;96998;-50
2022/08/02 10:08:28;;;;;;;1.20;0.87;;;;;;;26.85;42.80;101545.81;4981673;28;97381;-51
2022/08/02 10:11:00;;;;;;;1.03;0.63;;;;;;;26.91;42.38;101544.22;4980293;28;98998;-50
2022/08/02 10:13:34;;;;;;;2.00;1.00;;;;;;;26.97;40.58;101547.53;4980115;28;97050;-50
2022/08/02 10:16:01;;;;;;;1.40;0.93;;;;;;;27.03;42.10;101547.25;4979400;28;97136;-52
2022/08/02 10:18:27;;;;;;;1.73;0.80;;;;;;;27.08;41.86;101543.41;4974035;28;97750;-50
2022/08/02 10:20:54;;;;;;;2.60;1.10;;;;;;;27.08;41.79;101543.41;4977995;28;99718;-50
2022/08/02 10:23:21;;;;;;;1.20;0.90;;;;;;;27.15;41.79;101539.72;4975547;28;97198;-51
2022/08/02 10:25:49;;;;;;;1.50;0.93;;;;;;;27.23;41.78;101541.09;4975909;28;97098;-51
2022/08/02 10:28:15;;;;;;;0.97;0.87;;;;;;;27.29;41.61;101538.00;4977333;28;97025;-50
2022/08/02 10:30:44;;;;;;;1.40;0.87;;;;;;;27.37;41.37;101536.56;4980391;28;97513;-50
2022/08/02 10:33:10;;;;;;;2.47;1.33;;;;;;;27.40;41.08;101535.38;4981385;28;97002;-50
2022/08/02 10:35:38;;;;;;;1.07;0.97;;;;;;;27.40;41.05;101528.97;4981505;28;96780;-53
2022/08/02 10:38:07;;;;;;;12.23;1.10;;;;;;;27.44;41.03;101534.94;4979867;28;96948;-50
2022/08/02 10:40:47;;;;;;;1.10;0.90;;;;;;;27.56;40.31;101521.75;4981942;28;96808;-50
2022/08/02 10:43:35;;;;;;;1.37;0.90;;;;;;;27.64;39.95;101519.53;4978070;28;100230;-52
2022/08/02 10:46:33;;;;;;;1.10;0.97;;;;;;;27.71;39.87;101517.91;4982766;28;97122;-50
2022/08/02 10:49:11;;;;;;;2.07;1.17;;;;;;;27.73;39.40;101521.63;4982080;28;97051;-50
2022/08/02 10:51:52;;;;;;;1.17;0.90;;;;;;;27.74;39.60;101525.22;4975642;28;97265;-51
2022/08/02 10:54:21;;;;;;;2.83;0.87;;;;;;;27.84;40.60;101523.88;4984429;28;101533;-51
2022/08/02 10:56:48;;;;;;;1.83;1.00;;;;;;;27.94;40.47;101538.00;4985854;28;96898;-53
2022/08/02 10:59:32;;;;;;;1.00;0.70;;;;;;;28.03;39.06;101520.34;4982502;28;96946;-51
2022/08/02 11:02:02;;;;;;;3.27;1.20;;;;;;;28.11;39.84;101516.00;4982828;28;103043;-51
2022/08/02 11:04:38;;;;;;;1.43;1.00;;;;;;;28.19;39.99;101525.13;4981304;28;98140;-50
2022/08/02 11:07:09;;;;;;;2.03;1.10;;;;;;;28.33;39.03;101527.50;4981245;28;96759;-50
2022/08/02 11:09:35;;;;;;;2.30;1.03;;;;;;;28.42;39.54;101527.47;4978477;28;97335;-51
2022/08/02 11:12:05;;;;;;;0.80;0.80;;;;;;;28.54;39.18;101524.78;4982751;28;97275;-53
2022/08/02 11:14:33;;;;;;;1.83;0.90;;;;;;;28.57;39.50;101534.91;4980466;28;100327;-50
2022/08/02 11:17:00;;;;;;;1.77;1.30;;;;;;;28.58;39.34;101533.59;4979713;28;96728;-50
2022/08/02 11:19:26;;;;;;;1.47;1.10;;;;;;;28.50;38.98;101524.47;4976659;28;96816;-50
2022/08/02 11:22:10;;;;;;;1.33;1.00;;;;;;;28.54;38.62;101530.44;4981953;28;97372;-52
2022/08/02 11:24:39;;;;;;;1.50;1.13;;;;;;;28.59;38.56;101515.25;4978647;28;97126;-52
2022/08/02 11:27:07;;;;;;;2.10;1.40;;;;;;;28.66;39.20;101508.66;4980111;28;96795;-51
2022/08/02 11:29:34;;;;;;;2.43;1.10;;;;;;;28.76;38.53;101515.06;4977198;28;97161;-50